sensor_id;sensor_type;location;lat;lon;timestamp;temperature;humidity
80789;DHT22;70191;51.114;8.678;2023-05-16T00:02:24;11.00;99.90
80789;DHT22;70191;51.114;8.678;2023-05-16T00:04:50;10.90;99.90
80789;DHT22;70191;51.114;8.678;2023-05-16T00:07:16;10.90;99.90
80789;DHT22;70191;51.114;8.678;2023-05-16T00:09:42;10.90;99.90
80789;DHT22;70191;51.114;8.678;2023-05-16T00:12:07;10.90;99.90
80789;DHT22;70191;51.114;8.678;2023-05-16T00:14:34;10.90;99.90
80789;DHT22;70191;51.114;8.678;2023-05-16T00:17:00;10.90;99.90
80789;DHT22;70191;51.114;8.678;2023-05-16T00:19:28;11.00;99.90
80789;DHT22;70191;51.114;8.678;2023-05-16T00:21:54;10.90;99.90
80789;DHT22;70191;51.114;8.678;2023-05-16T00:24:20;11.00;99.90
80789;DHT22;70191;51.114;8.678;2023-05-16T00:26:46;11.10;99.90
80789;DHT22;70191;51.114;8.678;2023-05-16T00:29:11;11.10;99.90
80789;DHT22;70191;51.114;8.678;2023-05-16T00:31:37;11.10;99.90
80789;DHT22;70191;51.114;8.678;2023-05-16T00:34:02;11.10;99.90
80789;DHT22;70191;51.114;8.678;2023-05-16T00:36:28;11.20;99.90
80789;DHT22;70191;51.114;8.678;2023-05-16T00:38:55;11.20;99.90
80789;DHT22;70191;51.114;8.678;2023-05-16T00:41:20;11.20;99.90
80789;DHT22;70191;51.114;8.678;2023-05-16T00:43:46;11.20;99.90
80789;DHT22;70191;51.114;8.678;2023-05-16T00:46:12;11.10;99.90
80789;DHT22;70191;51.114;8.678;2023-05-16T00:48:37;11.20;99.90
80789;DHT22;70191;51.114;8.678;2023-05-16T00:51:03;11.20;99.90
80789;DHT22;70191;51.114;8.678;2023-05-16T00:53:34;11.20;99.90
80789;DHT22;70191;51.114;8.678;2023-05-16T00:55:59;11.10;99.90
80789;DHT22;70191;51.114;8.678;2023-05-16T00:58:25;11.10;99.90
80789;DHT22;70191;51.114;8.678;2023-05-16T01:00:51;11.10;99.90
80789;DHT22;70191;51.114;8.678;2023-05-16T01:03:17;11.10;99.90
80789;DHT22;70191;51.114;8.678;2023-05-16T01:05:43;11.10;99.90
80789;DHT22;70191;51.114;8.678;2023-05-16T01:08:09;11.10;99.90
80789;DHT22;70191;51.114;8.678;2023-05-16T01:10:40;11.10;99.90
80789;DHT22;70191;51.114;8.678;2023-05-16T01:13:16;11.20;99.90
80789;DHT22;70191;51.114;8.678;2023-05-16T01:15:52;11.20;99.90
80789;DHT22;70191;51.114;8.678;2023-05-16T01:18:32;11.20;99.90
80789;DHT22;70191;51.114;8.678;2023-05-16T01:21:10;11.10;99.90
80789;DHT22;70191;51.114;8.678;2023-05-16T01:24:02;11.10;99.90
80789;DHT22;70191;51.114;8.678;2023-05-16T01:26:29;11.20;99.90
80789;DHT22;70191;51.114;8.678;2023-05-16T01:28:56;11.20;99.90
80789;DHT22;70191;51.114;8.678;2023-05-16T01:31:22;11.10;99.90
80789;DHT22;70191;51.114;8.678;2023-05-16T01:33:48;11.10;99.90
80789;DHT22;70191;51.114;8.678;2023-05-16T01:36:23;11.00;99.90
80789;DHT22;70191;51.114;8.678;2023-05-16T01:39:21;10.90;99.90
80789;DHT22;70191;51.114;8.678;2023-05-16T01:42:04;10.90;99.90
80789;DHT22;70191;51.114;8.678;2023-05-16T01:47:08;10.80;99.90
80789;DHT22;70191;51.114;8.678;2023-05-16T01:50:02;10.80;99.90
80789;DHT22;70191;51.114;8.678;2023-05-16T01:52:49;10.90;99.90
80789;DHT22;70191;51.114;8.678;2023-05-16T01:55:31;10.80;99.90
80789;DHT22;70191;51.114;8.678;2023-05-16T01:58:02;10.80;99.90
80789;DHT22;70191;51.114;8.678;2023-05-16T02:00:28;10.80;99.90
80789;DHT22;70191;51.114;8.678;2023-05-16T02:02:54;10.80;99.90
80789;DHT22;70191;51.114;8.678;2023-05-16T02:05:20;10.70;99.90
80789;DHT22;70191;51.114;8.678;2023-05-16T02:07:45;10.80;99.90
80789;DHT22;70191;51.114;8.678;2023-05-16T02:10:12;10.70;99.90
80789;DHT22;70191;51.114;8.678;2023-05-16T02:12:38;10.70;99.90
80789;DHT22;70191;51.114;8.678;2023-05-16T02:15:05;10.70;99.90
80789;DHT22;70191;51.114;8.678;2023-05-16T02:17:30;10.60;99.90
80789;DHT22;70191;51.114;8.678;2023-05-16T02:19:56;10.60;99.90
80789;DHT22;70191;51.114;8.678;2023-05-16T02:22:22;10.50;99.90
80789;DHT22;70191;51.114;8.678;2023-05-16T02:24:47;10.50;99.90
80789;DHT22;70191;51.114;8.678;2023-05-16T02:27:13;10.60;99.90
80789;DHT22;70191;51.114;8.678;2023-05-16T02:29:38;10.50;99.90
80789;DHT22;70191;51.114;8.678;2023-05-16T02:32:04;10.40;99.90
80789;DHT22;70191;51.114;8.678;2023-05-16T02:34:30;10.40;99.90
80789;DHT22;70191;51.114;8.678;2023-05-16T02:36:55;10.40;99.90
80789;DHT22;70191;51.114;8.678;2023-05-16T02:39:21;10.40;99.90
80789;DHT22;70191;51.114;8.678;2023-05-16T02:41:46;10.30;99.90
80789;DHT22;70191;51.114;8.678;2023-05-16T02:44:12;10.40;99.90
80789;DHT22;70191;51.114;8.678;2023-05-16T02:46:38;10.40;99.90
80789;DHT22;70191;51.114;8.678;2023-05-16T02:49:03;10.20;99.90
80789;DHT22;70191;51.114;8.678;2023-05-16T02:51:29;10.10;99.90
80789;DHT22;70191;51.114;8.678;2023-05-16T02:53:54;10.10;99.90
80789;DHT22;70191;51.114;8.678;2023-05-16T02:56:26;10.10;99.90
80789;DHT22;70191;51.114;8.678;2023-05-16T02:58:53;10.20;99.90
80789;DHT22;70191;51.114;8.678;2023-05-16T03:01:19;10.00;99.90
80789;DHT22;70191;51.114;8.678;2023-05-16T03:03:44;9.90;99.90
80789;DHT22;70191;51.114;8.678;2023-05-16T03:06:10;10.00;99.90
80789;DHT22;70191;51.114;8.678;2023-05-16T03:08:36;9.80;99.90
80789;DHT22;70191;51.114;8.678;2023-05-16T03:11:02;9.90;99.90
80789;DHT22;70191;51.114;8.678;2023-05-16T03:13:27;10.00;99.90
80789;DHT22;70191;51.114;8.678;2023-05-16T03:15:54;9.90;99.90
80789;DHT22;70191;51.114;8.678;2023-05-16T03:18:20;9.90;99.90
80789;DHT22;70191;51.114;8.678;2023-05-16T03:20:46;9.90;99.90
80789;DHT22;70191;51.114;8.678;2023-05-16T03:23:11;9.90;99.90
80789;DHT22;70191;51.114;8.678;2023-05-16T03:25:37;9.90;99.90
80789;DHT22;70191;51.114;8.678;2023-05-16T03:28:06;9.80;99.90
80789;DHT22;70191;51.114;8.678;2023-05-16T03:30:35;9.90;99.90
80789;DHT22;70191;51.114;8.678;2023-05-16T03:33:00;9.90;99.90
80789;DHT22;70191;51.114;8.678;2023-05-16T03:35:30;9.90;99.90
80789;DHT22;70191;51.114;8.678;2023-05-16T03:37:55;9.90;99.90
80789;DHT22;70191;51.114;8.678;2023-05-16T03:40:21;9.80;99.90
80789;DHT22;70191;51.114;8.678;2023-05-16T03:42:47;9.70;99.90
80789;DHT22;70191;51.114;8.678;2023-05-16T03:45:12;9.80;99.90
80789;DHT22;70191;51.114;8.678;2023-05-16T03:47:38;9.70;99.90
80789;DHT22;70191;51.114;8.678;2023-05-16T03:50:04;9.70;99.90
80789;DHT22;70191;51.114;8.678;2023-05-16T03:52:30;9.70;99.90
80789;DHT22;70191;51.114;8.678;2023-05-16T03:54:56;9.70;99.90
80789;DHT22;70191;51.114;8.678;2023-05-16T03:57:21;9.80;99.90
80789;DHT22;70191;51.114;8.678;2023-05-16T03:59:47;9.80;99.90
80789;DHT22;70191;51.114;8.678;2023-05-16T04:02:13;9.70;99.90
80789;DHT22;70191;51.114;8.678;2023-05-16T04:04:38;9.80;99.90
80789;DHT22;70191;51.114;8.678;2023-05-16T04:07:04;9.80;99.90
80789;DHT22;70191;51.114;8.678;2023-05-16T04:09:30;9.70;99.90
80789;DHT22;70191;51.114;8.678;2023-05-16T04:11:56;9.70;99.90
80789;DHT22;70191;51.114;8.678;2023-05-16T04:14:25;9.80;99.90
80789;DHT22;70191;51.114;8.678;2023-05-16T04:16:50;9.80;99.90
80789;DHT22;70191;51.114;8.678;2023-05-16T04:19:16;9.90;99.90
80789;DHT22;70191;51.114;8.678;2023-05-16T04:21:41;9.80;99.90
80789;DHT22;70191;51.114;8.678;2023-05-16T04:24:07;9.90;99.90
80789;DHT22;70191;51.114;8.678;2023-05-16T04:26:32;10.00;99.90
80789;DHT22;70191;51.114;8.678;2023-05-16T04:28:58;10.00;99.90
80789;DHT22;70191;51.114;8.678;2023-05-16T04:31:25;9.90;99.90
80789;DHT22;70191;51.114;8.678;2023-05-16T04:33:51;10.10;99.90
80789;DHT22;70191;51.114;8.678;2023-05-16T04:36:17;10.00;99.90
80789;DHT22;70191;51.114;8.678;2023-05-16T04:38:42;10.00;99.90
80789;DHT22;70191;51.114;8.678;2023-05-16T04:41:08;10.10;99.90
80789;DHT22;70191;51.114;8.678;2023-05-16T04:43:34;10.00;99.90
80789;DHT22;70191;51.114;8.678;2023-05-16T04:46:00;10.10;99.90
80789;DHT22;70191;51.114;8.678;2023-05-16T04:48:25;9.90;99.90
80789;DHT22;70191;51.114;8.678;2023-05-16T04:50:51;9.80;99.90
80789;DHT22;70191;51.114;8.678;2023-05-16T04:53:16;9.60;99.90
80789;DHT22;70191;51.114;8.678;2023-05-16T04:55:42;9.40;99.90
80789;DHT22;70191;51.114;8.678;2023-05-16T04:58:07;9.20;99.90
80789;DHT22;70191;51.114;8.678;2023-05-16T05:00:33;8.90;99.90
80789;DHT22;70191;51.114;8.678;2023-05-16T05:02:59;8.90;99.90
80789;DHT22;70191;51.114;8.678;2023-05-16T05:05:24;8.80;99.90
80789;DHT22;70191;51.114;8.678;2023-05-16T05:07:50;8.70;99.90
80789;DHT22;70191;51.114;8.678;2023-05-16T05:10:15;8.70;99.90
80789;DHT22;70191;51.114;8.678;2023-05-16T05:12:41;8.90;99.90
80789;DHT22;70191;51.114;8.678;2023-05-16T05:15:07;8.80;99.90
80789;DHT22;70191;51.114;8.678;2023-05-16T05:17:33;8.90;99.90
80789;DHT22;70191;51.114;8.678;2023-05-16T05:19:58;8.70;99.90
80789;DHT22;70191;51.114;8.678;2023-05-16T05:22:24;8.90;99.90
80789;DHT22;70191;51.114;8.678;2023-05-16T05:24:49;9.00;99.90
80789;DHT22;70191;51.114;8.678;2023-05-16T05:27:16;9.20;99.90
80789;DHT22;70191;51.114;8.678;2023-05-16T05:29:41;9.30;99.90
80789;DHT22;70191;51.114;8.678;2023-05-16T05:32:07;9.10;99.90
80789;DHT22;70191;51.114;8.678;2023-05-16T05:34:33;9.20;99.90
80789;DHT22;70191;51.114;8.678;2023-05-16T05:36:58;9.20;99.90
80789;DHT22;70191;51.114;8.678;2023-05-16T05:39:24;9.10;99.90
80789;DHT22;70191;51.114;8.678;2023-05-16T05:41:50;9.30;99.90
80789;DHT22;70191;51.114;8.678;2023-05-16T05:44:15;9.40;99.90
80789;DHT22;70191;51.114;8.678;2023-05-16T05:46:41;9.40;99.90
80789;DHT22;70191;51.114;8.678;2023-05-16T05:49:07;9.50;99.90
80789;DHT22;70191;51.114;8.678;2023-05-16T05:51:33;9.40;99.90
80789;DHT22;70191;51.114;8.678;2023-05-16T05:53:58;9.00;99.90
80789;DHT22;70191;51.114;8.678;2023-05-16T05:56:24;8.90;99.90
80789;DHT22;70191;51.114;8.678;2023-05-16T05:58:50;9.10;99.90
80789;DHT22;70191;51.114;8.678;2023-05-16T06:01:16;9.30;99.90
80789;DHT22;70191;51.114;8.678;2023-05-16T06:03:42;9.40;99.90
80789;DHT22;70191;51.114;8.678;2023-05-16T06:06:08;9.40;99.90
80789;DHT22;70191;51.114;8.678;2023-05-16T06:08:33;9.30;99.90
80789;DHT22;70191;51.114;8.678;2023-05-16T06:11:00;9.20;99.90
80789;DHT22;70191;51.114;8.678;2023-05-16T06:13:26;9.50;99.90
80789;DHT22;70191;51.114;8.678;2023-05-16T06:15:52;9.60;99.70
80789;DHT22;70191;51.114;8.678;2023-05-16T06:18:18;9.30;99.90
80789;DHT22;70191;51.114;8.678;2023-05-16T06:20:44;9.40;99.90
80789;DHT22;70191;51.114;8.678;2023-05-16T06:23:10;9.60;99.90
80789;DHT22;70191;51.114;8.678;2023-05-16T06:25:35;9.50;99.10
80789;DHT22;70191;51.114;8.678;2023-05-16T06:28:01;9.20;99.80
80789;DHT22;70191;51.114;8.678;2023-05-16T06:30:26;9.30;99.90
80789;DHT22;70191;51.114;8.678;2023-05-16T06:32:52;9.30;99.90
80789;DHT22;70191;51.114;8.678;2023-05-16T06:35:18;9.60;99.90
80789;DHT22;70191;51.114;8.678;2023-05-16T06:37:43;10.00;98.90
80789;DHT22;70191;51.114;8.678;2023-05-16T06:40:10;9.90;96.20
80789;DHT22;70191;51.114;8.678;2023-05-16T06:42:35;10.20;95.80
80789;DHT22;70191;51.114;8.678;2023-05-16T06:45:01;10.10;95.00
80789;DHT22;70191;51.114;8.678;2023-05-16T06:47:26;9.70;96.50
80789;DHT22;70191;51.114;8.678;2023-05-16T06:49:52;9.40;97.70
80789;DHT22;70191;51.114;8.678;2023-05-16T06:52:18;9.50;96.90
80789;DHT22;70191;51.114;8.678;2023-05-16T06:54:43;9.70;97.30
80789;DHT22;70191;51.114;8.678;2023-05-16T06:57:09;9.50;96.80
80789;DHT22;70191;51.114;8.678;2023-05-16T06:59:34;9.60;98.20
80789;DHT22;70191;51.114;8.678;2023-05-16T07:02:01;9.40;98.60
80789;DHT22;70191;51.114;8.678;2023-05-16T07:04:27;9.40;97.60
80789;DHT22;70191;51.114;8.678;2023-05-16T07:06:52;9.50;97.60
80789;DHT22;70191;51.114;8.678;2023-05-16T07:09:19;9.90;97.50
80789;DHT22;70191;51.114;8.678;2023-05-16T07:11:45;10.00;96.50
80789;DHT22;70191;51.114;8.678;2023-05-16T07:14:10;10.10;96.50
80789;DHT22;70191;51.114;8.678;2023-05-16T07:16:36;10.20;96.10
80789;DHT22;70191;51.114;8.678;2023-05-16T07:19:01;10.50;95.10
80789;DHT22;70191;51.114;8.678;2023-05-16T07:21:27;10.30;94.60
80789;DHT22;70191;51.114;8.678;2023-05-16T07:23:53;10.60;95.40
80789;DHT22;70191;51.114;8.678;2023-05-16T07:26:19;10.60;96.50
80789;DHT22;70191;51.114;8.678;2023-05-16T07:28:50;10.40;96.50
80789;DHT22;70191;51.114;8.678;2023-05-16T07:31:16;10.40;97.00
80789;DHT22;70191;51.114;8.678;2023-05-16T07:33:42;10.30;97.20
80789;DHT22;70191;51.114;8.678;2023-05-16T07:36:08;10.20;95.90
80789;DHT22;70191;51.114;8.678;2023-05-16T07:38:34;10.20;96.30
80789;DHT22;70191;51.114;8.678;2023-05-16T07:41:00;10.40;97.80
80789;DHT22;70191;51.114;8.678;2023-05-16T07:43:25;10.00;95.40
80789;DHT22;70191;51.114;8.678;2023-05-16T07:45:51;9.80;96.00
80789;DHT22;70191;51.114;8.678;2023-05-16T07:48:17;10.00;94.90
80789;DHT22;70191;51.114;8.678;2023-05-16T07:50:43;10.30;94.50
80789;DHT22;70191;51.114;8.678;2023-05-16T07:53:08;10.00;93.80
80789;DHT22;70191;51.114;8.678;2023-05-16T07:55:34;9.80;93.80
80789;DHT22;70191;51.114;8.678;2023-05-16T07:58:00;9.60;94.90
80789;DHT22;70191;51.114;8.678;2023-05-16T08:00:25;9.80;94.50
80789;DHT22;70191;51.114;8.678;2023-05-16T08:02:51;9.60;93.40
80789;DHT22;70191;51.114;8.678;2023-05-16T08:05:17;9.90;93.00
80789;DHT22;70191;51.114;8.678;2023-05-16T08:07:42;10.20;91.60
80789;DHT22;70191;51.114;8.678;2023-05-16T08:10:08;10.90;91.40
80789;DHT22;70191;51.114;8.678;2023-05-16T08:12:34;10.90;89.40
80789;DHT22;70191;51.114;8.678;2023-05-16T08:14:59;11.00;88.10
80789;DHT22;70191;51.114;8.678;2023-05-16T08:17:25;10.90;87.20
80789;DHT22;70191;51.114;8.678;2023-05-16T08:19:50;10.60;86.80
80789;DHT22;70191;51.114;8.678;2023-05-16T08:22:16;11.40;88.20
80789;DHT22;70191;51.114;8.678;2023-05-16T08:24:42;11.60;85.20
80789;DHT22;70191;51.114;8.678;2023-05-16T08:27:07;11.40;85.60
80789;DHT22;70191;51.114;8.678;2023-05-16T08:29:33;11.80;84.10
80789;DHT22;70191;51.114;8.678;2023-05-16T08:31:59;12.00;82.80
80789;DHT22;70191;51.114;8.678;2023-05-16T08:34:24;12.60;81.10
80789;DHT22;70191;51.114;8.678;2023-05-16T08:36:50;12.50;80.30
80789;DHT22;70191;51.114;8.678;2023-05-16T08:39:15;12.20;81.30
80789;DHT22;70191;51.114;8.678;2023-05-16T08:41:41;12.30;81.40
80789;DHT22;70191;51.114;8.678;2023-05-16T08:44:06;13.00;79.80
80789;DHT22;70191;51.114;8.678;2023-05-16T08:46:34;12.40;79.60
80789;DHT22;70191;51.114;8.678;2023-05-16T08:49:01;12.50;82.60
80789;DHT22;70191;51.114;8.678;2023-05-16T08:51:32;13.00;81.00
80789;DHT22;70191;51.114;8.678;2023-05-16T08:54:06;12.70;80.00
80789;DHT22;70191;51.114;8.678;2023-05-16T08:56:34;12.80;79.50
80789;DHT22;70191;51.114;8.678;2023-05-16T08:59:01;11.90;78.90
80789;DHT22;70191;51.114;8.678;2023-05-16T09:01:27;11.40;80.30
80789;DHT22;70191;51.114;8.678;2023-05-16T09:03:54;11.80;82.80
80789;DHT22;70191;51.114;8.678;2023-05-16T09:06:19;11.80;79.40
80789;DHT22;70191;51.114;8.678;2023-05-16T09:08:45;12.40;82.20
80789;DHT22;70191;51.114;8.678;2023-05-16T09:11:11;12.60;77.20
80789;DHT22;70191;51.114;8.678;2023-05-16T09:13:38;12.60;75.10
80789;DHT22;70191;51.114;8.678;2023-05-16T09:16:14;13.60;75.80
80789;DHT22;70191;51.114;8.678;2023-05-16T09:18:43;14.30;76.80
80789;DHT22;70191;51.114;8.678;2023-05-16T09:21:10;13.30;76.40
80789;DHT22;70191;51.114;8.678;2023-05-16T09:23:36;12.50;77.60
80789;DHT22;70191;51.114;8.678;2023-05-16T09:26:04;11.60;79.10
80789;DHT22;70191;51.114;8.678;2023-05-16T09:28:31;11.20;78.80
80789;DHT22;70191;51.114;8.678;2023-05-16T09:30:56;11.10;80.70
80789;DHT22;70191;51.114;8.678;2023-05-16T09:33:27;11.10;80.80
80789;DHT22;70191;51.114;8.678;2023-05-16T09:35:58;12.10;83.60
80789;DHT22;70191;51.114;8.678;2023-05-16T09:38:24;11.30;81.70
80789;DHT22;70191;51.114;8.678;2023-05-16T09:40:51;11.50;82.70
80789;DHT22;70191;51.114;8.678;2023-05-16T09:43:17;11.20;82.10
80789;DHT22;70191;51.114;8.678;2023-05-16T09:45:47;11.80;83.00
80789;DHT22;70191;51.114;8.678;2023-05-16T09:48:13;12.30;81.20
80789;DHT22;70191;51.114;8.678;2023-05-16T09:50:39;12.20;78.30
80789;DHT22;70191;51.114;8.678;2023-05-16T09:53:06;12.30;78.60
80789;DHT22;70191;51.114;8.678;2023-05-16T09:55:32;12.60;76.50
80789;DHT22;70191;51.114;8.678;2023-05-16T09:57:57;13.40;79.00
80789;DHT22;70191;51.114;8.678;2023-05-16T10:00:32;13.40;76.00
80789;DHT22;70191;51.114;8.678;2023-05-16T10:02:58;13.50;73.80
80789;DHT22;70191;51.114;8.678;2023-05-16T10:05:28;13.40;74.40
80789;DHT22;70191;51.114;8.678;2023-05-16T10:07:55;12.60;72.60
80789;DHT22;70191;51.114;8.678;2023-05-16T10:10:22;12.70;73.90
80789;DHT22;70191;51.114;8.678;2023-05-16T10:12:48;13.40;74.70
80789;DHT22;70191;51.114;8.678;2023-05-16T10:15:15;13.90;72.60
80789;DHT22;70191;51.114;8.678;2023-05-16T10:17:42;14.70;75.00
80789;DHT22;70191;51.114;8.678;2023-05-16T10:20:10;14.60;68.50
80789;DHT22;70191;51.114;8.678;2023-05-16T10:22:41;14.80;72.00
80789;DHT22;70191;51.114;8.678;2023-05-16T10:27:51;15.40;69.10
80789;DHT22;70191;51.114;8.678;2023-05-16T10:30:17;14.60;67.20
80789;DHT22;70191;51.114;8.678;2023-05-16T10:32:44;14.40;68.60
80789;DHT22;70191;51.114;8.678;2023-05-16T10:35:10;14.60;70.50
80789;DHT22;70191;51.114;8.678;2023-05-16T10:37:37;13.40;74.70
80789;DHT22;70191;51.114;8.678;2023-05-16T10:40:03;13.50;74.50
80789;DHT22;70191;51.114;8.678;2023-05-16T10:42:33;13.40;74.10
80789;DHT22;70191;51.114;8.678;2023-05-16T10:45:18;13.30;75.10
80789;DHT22;70191;51.114;8.678;2023-05-16T10:47:55;13.00;74.80
80789;DHT22;70191;51.114;8.678;2023-05-16T10:50:50;12.80;74.90
80789;DHT22;70191;51.114;8.678;2023-05-16T11:04:05;14.30;70.00
80789;DHT22;70191;51.114;8.678;2023-05-16T11:14:08;13.80;68.80
80789;DHT22;70191;51.114;8.678;2023-05-16T11:17:05;14.80;70.20
80789;DHT22;70191;51.114;8.678;2023-05-16T11:27:21;14.20;67.10
80789;DHT22;70191;51.114;8.678;2023-05-16T11:29:46;14.70;69.70
80789;DHT22;70191;51.114;8.678;2023-05-16T11:32:13;16.00;67.40
80789;DHT22;70191;51.114;8.678;2023-05-16T11:34:43;14.40;67.60
80789;DHT22;70191;51.114;8.678;2023-05-16T11:37:10;18.70;63.70
80789;DHT22;70191;51.114;8.678;2023-05-16T11:39:36;23.00;53.10
80789;DHT22;70191;51.114;8.678;2023-05-16T11:42:01;23.80;51.10
80789;DHT22;70191;51.114;8.678;2023-05-16T11:44:27;26.80;49.40
80789;DHT22;70191;51.114;8.678;2023-05-16T11:46:53;27.20;47.50
80789;DHT22;70191;51.114;8.678;2023-05-16T11:49:19;23.90;51.20
80789;DHT22;70191;51.114;8.678;2023-05-16T11:51:44;22.00;55.80
80789;DHT22;70191;51.114;8.678;2023-05-16T11:54:11;24.20;52.80
80789;DHT22;70191;51.114;8.678;2023-05-16T11:56:38;26.40;49.40
80789;DHT22;70191;51.114;8.678;2023-05-16T11:59:05;28.80;46.20
80789;DHT22;70191;51.114;8.678;2023-05-16T12:01:35;27.70;45.50
80789;DHT22;70191;51.114;8.678;2023-05-16T12:04:05;26.80;44.70
80789;DHT22;70191;51.114;8.678;2023-05-16T12:06:32;23.40;48.10
80789;DHT22;70191;51.114;8.678;2023-05-16T12:08:57;19.80;54.20
80789;DHT22;70191;51.114;8.678;2023-05-16T12:11:23;16.80;60.90
80789;DHT22;70191;51.114;8.678;2023-05-16T12:13:49;16.60;61.80
80789;DHT22;70191;51.114;8.678;2023-05-16T12:16:15;22.40;56.10
80789;DHT22;70191;51.114;8.678;2023-05-16T12:18:41;21.50;50.10
80789;DHT22;70191;51.114;8.678;2023-05-16T12:21:07;19.50;53.80
80789;DHT22;70191;51.114;8.678;2023-05-16T12:23:33;17.20;59.70
80789;DHT22;70191;51.114;8.678;2023-05-16T12:25:59;16.60;59.80
80789;DHT22;70191;51.114;8.678;2023-05-16T12:28:31;16.10;63.60
80789;DHT22;70191;51.114;8.678;2023-05-16T12:30:59;18.60;62.10
80789;DHT22;70191;51.114;8.678;2023-05-16T12:33:24;19.50;55.30
80789;DHT22;70191;51.114;8.678;2023-05-16T12:35:51;16.70;59.80
80789;DHT22;70191;51.114;8.678;2023-05-16T12:38:18;19.90;57.00
80789;DHT22;70191;51.114;8.678;2023-05-16T12:40:45;23.00;49.80
80789;DHT22;70191;51.114;8.678;2023-05-16T12:43:19;21.90;52.90
80789;DHT22;70191;51.114;8.678;2023-05-16T12:45:50;23.00;51.90
80789;DHT22;70191;51.114;8.678;2023-05-16T12:48:17;24.80;48.60
80789;DHT22;70191;51.114;8.678;2023-05-16T12:50:43;20.70;51.50
80789;DHT22;70191;51.114;8.678;2023-05-16T12:53:12;19.80;55.10
80789;DHT22;70191;51.114;8.678;2023-05-16T12:55:38;17.80;59.10
80789;DHT22;70191;51.114;8.678;2023-05-16T12:58:04;19.80;56.00
80789;DHT22;70191;51.114;8.678;2023-05-16T13:00:30;18.10;58.40
80789;DHT22;70191;51.114;8.678;2023-05-16T13:02:56;18.50;61.90
80789;DHT22;70191;51.114;8.678;2023-05-16T13:05:22;19.50;57.60
80789;DHT22;70191;51.114;8.678;2023-05-16T13:07:48;17.70;58.50
80789;DHT22;70191;51.114;8.678;2023-05-16T13:10:16;17.00;60.10
80789;DHT22;70191;51.114;8.678;2023-05-16T13:12:42;16.30;62.70
80789;DHT22;70191;51.114;8.678;2023-05-16T13:15:09;15.70;62.30
80789;DHT22;70191;51.114;8.678;2023-05-16T13:17:40;19.60;59.00
80789;DHT22;70191;51.114;8.678;2023-05-16T13:20:06;22.90;52.70
80789;DHT22;70191;51.114;8.678;2023-05-16T13:22:42;26.40;46.80
80789;DHT22;70191;51.114;8.678;2023-05-16T13:25:08;27.40;46.00
80789;DHT22;70191;51.114;8.678;2023-05-16T13:27:34;28.00;44.30
80789;DHT22;70191;51.114;8.678;2023-05-16T13:30:00;27.90;42.50
80789;DHT22;70191;51.114;8.678;2023-05-16T13:32:26;25.40;44.30
80789;DHT22;70191;51.114;8.678;2023-05-16T13:34:51;20.90;49.80
80789;DHT22;70191;51.114;8.678;2023-05-16T13:37:17;22.90;51.00
80789;DHT22;70191;51.114;8.678;2023-05-16T13:39:43;26.70;46.00
80789;DHT22;70191;51.114;8.678;2023-05-16T13:42:09;28.70;44.20
80789;DHT22;70191;51.114;8.678;2023-05-16T13:44:34;29.20;43.60
80789;DHT22;70191;51.114;8.678;2023-05-16T13:47:00;28.80;42.70
80789;DHT22;70191;51.114;8.678;2023-05-16T13:49:26;26.90;44.80
80789;DHT22;70191;51.114;8.678;2023-05-16T13:51:52;29.90;41.60
80789;DHT22;70191;51.114;8.678;2023-05-16T13:54:18;28.60;43.50
80789;DHT22;70191;51.114;8.678;2023-05-16T13:56:44;23.10;47.00
80789;DHT22;70191;51.114;8.678;2023-05-16T13:59:09;27.30;44.10
80789;DHT22;70191;51.114;8.678;2023-05-16T14:01:35;30.40;42.30
80789;DHT22;70191;51.114;8.678;2023-05-16T14:04:01;29.40;43.20
80789;DHT22;70191;51.114;8.678;2023-05-16T14:06:27;29.70;41.70
80789;DHT22;70191;51.114;8.678;2023-05-16T14:08:52;29.40;41.40
80789;DHT22;70191;51.114;8.678;2023-05-16T14:11:18;30.10;40.50
80789;DHT22;70191;51.114;8.678;2023-05-16T14:13:44;27.30;42.90
80789;DHT22;70191;51.114;8.678;2023-05-16T14:16:10;27.20;43.20
80789;DHT22;70191;51.114;8.678;2023-05-16T14:18:36;30.20;42.10
80789;DHT22;70191;51.114;8.678;2023-05-16T14:21:01;29.80;41.80
80789;DHT22;70191;51.114;8.678;2023-05-16T14:23:27;26.60;41.80
80789;DHT22;70191;51.114;8.678;2023-05-16T14:25:53;23.40;46.50
80789;DHT22;70191;51.114;8.678;2023-05-16T14:28:18;20.50;50.80
80789;DHT22;70191;51.114;8.678;2023-05-16T14:30:44;18.90;54.30
80789;DHT22;70191;51.114;8.678;2023-05-16T14:33:09;17.60;56.70
80789;DHT22;70191;51.114;8.678;2023-05-16T14:35:35;17.00;59.90
80789;DHT22;70191;51.114;8.678;2023-05-16T14:38:03;16.30;60.60
80789;DHT22;70191;51.114;8.678;2023-05-16T14:40:28;15.70;62.30
80789;DHT22;70191;51.114;8.678;2023-05-16T14:42:54;16.30;63.00
80789;DHT22;70191;51.114;8.678;2023-05-16T14:45:20;16.30;61.90
80789;DHT22;70191;51.114;8.678;2023-05-16T14:47:45;16.50;62.20
80789;DHT22;70191;51.114;8.678;2023-05-16T14:50:12;19.70;59.20
80789;DHT22;70191;51.114;8.678;2023-05-16T14:52:39;21.40;56.50
80789;DHT22;70191;51.114;8.678;2023-05-16T14:55:05;25.50;48.70
80789;DHT22;70191;51.114;8.678;2023-05-16T14:57:31;27.70;46.40
80789;DHT22;70191;51.114;8.678;2023-05-16T14:59:57;27.00;45.90
80789;DHT22;70191;51.114;8.678;2023-05-16T15:02:23;26.50;45.70
80789;DHT22;70191;51.114;8.678;2023-05-16T15:04:48;23.80;48.90
80789;DHT22;70191;51.114;8.678;2023-05-16T15:07:14;21.00;53.00
80789;DHT22;70191;51.114;8.678;2023-05-16T15:09:40;20.00;56.00
80789;DHT22;70191;51.114;8.678;2023-05-16T15:12:06;19.00;58.50
80789;DHT22;70191;51.114;8.678;2023-05-16T15:14:32;18.30;58.60
80789;DHT22;70191;51.114;8.678;2023-05-16T15:16:57;21.70;55.00
80789;DHT22;70191;51.114;8.678;2023-05-16T15:19:23;21.30;53.60
80789;DHT22;70191;51.114;8.678;2023-05-16T15:21:49;19.90;56.70
80789;DHT22;70191;51.114;8.678;2023-05-16T15:24:14;24.10;50.90
80789;DHT22;70191;51.114;8.678;2023-05-16T15:26:41;22.10;51.20
80789;DHT22;70191;51.114;8.678;2023-05-16T15:29:07;21.10;54.00
80789;DHT22;70191;51.114;8.678;2023-05-16T15:31:32;19.20;55.10
80789;DHT22;70191;51.114;8.678;2023-05-16T15:33:58;17.90;58.90
80789;DHT22;70191;51.114;8.678;2023-05-16T15:36:24;17.40;58.70
80789;DHT22;70191;51.114;8.678;2023-05-16T15:38:49;17.10;59.20
80789;DHT22;70191;51.114;8.678;2023-05-16T15:41:15;16.60;60.00
80789;DHT22;70191;51.114;8.678;2023-05-16T15:43:41;16.20;62.00
80789;DHT22;70191;51.114;8.678;2023-05-16T15:46:09;17.40;61.10
80789;DHT22;70191;51.114;8.678;2023-05-16T15:48:36;17.30;57.70
80789;DHT22;70191;51.114;8.678;2023-05-16T15:51:02;16.80;59.40
80789;DHT22;70191;51.114;8.678;2023-05-16T15:53:28;15.90;60.40
80789;DHT22;70191;51.114;8.678;2023-05-16T15:55:54;16.70;61.70
80789;DHT22;70191;51.114;8.678;2023-05-16T15:58:20;16.40;59.30
80789;DHT22;70191;51.114;8.678;2023-05-16T16:00:46;18.30;60.60
80789;DHT22;70191;51.114;8.678;2023-05-16T16:03:12;22.80;52.20
80789;DHT22;70191;51.114;8.678;2023-05-16T16:05:37;21.00;52.80